sensor_id;sensor_type;location;lat;lon;timestamp;temperature;humidity
18041;DHT22;9145;48.588;9.250;2023-11-21T00:02:16;8.90;99.90
18041;DHT22;9145;48.588;9.250;2023-11-21T00:04:44;8.90;99.90
18041;DHT22;9145;48.588;9.250;2023-11-21T00:07:11;8.90;99.90
18041;DHT22;9145;48.588;9.250;2023-11-21T00:09:37;8.90;99.90
18041;DHT22;9145;48.588;9.250;2023-11-21T00:12:04;9.00;99.90
18041;DHT22;9145;48.588;9.250;2023-11-21T00:14:31;8.90;99.90
18041;DHT22;9145;48.588;9.250;2023-11-21T00:16:59;8.90;99.90
18041;DHT22;9145;48.588;9.250;2023-11-21T00:19:26;9.00;99.90
18041;DHT22;9145;48.588;9.250;2023-11-21T00:21:54;9.00;99.90
18041;DHT22;9145;48.588;9.250;2023-11-21T00:24:21;9.00;99.90
18041;DHT22;9145;48.588;9.250;2023-11-21T00:26:48;9.00;99.90
18041;DHT22;9145;48.588;9.250;2023-11-21T00:29:14;9.10;99.90
18041;DHT22;9145;48.588;9.250;2023-11-21T00:31:43;9.00;99.90
18041;DHT22;9145;48.588;9.250;2023-11-21T00:34:10;9.10;99.90
18041;DHT22;9145;48.588;9.250;2023-11-21T00:36:37;9.10;99.90
18041;DHT22;9145;48.588;9.250;2023-11-21T00:39:05;9.10;99.90
18041;DHT22;9145;48.588;9.250;2023-11-21T00:41:33;9.10;99.90
18041;DHT22;9145;48.588;9.250;2023-11-21T00:44:00;9.20;99.90
18041;DHT22;9145;48.588;9.250;2023-11-21T00:46:28;9.10;99.90
18041;DHT22;9145;48.588;9.250;2023-11-21T00:48:54;9.10;99.90
18041;DHT22;9145;48.588;9.250;2023-11-21T00:51:22;9.00;99.90
18041;DHT22;9145;48.588;9.250;2023-11-21T00:53:49;8.90;99.90
18041;DHT22;9145;48.588;9.250;2023-11-21T00:56:17;8.90;99.90
18041;DHT22;9145;48.588;9.250;2023-11-21T00:58:43;8.90;99.90
18041;DHT22;9145;48.588;9.250;2023-11-21T01:01:15;8.90;99.90
18041;DHT22;9145;48.588;9.250;2023-11-21T01:03:42;9.00;99.90
18041;DHT22;9145;48.588;9.250;2023-11-21T01:06:09;9.00;99.90
18041;DHT22;9145;48.588;9.250;2023-11-21T01:08:35;9.00;99.90
18041;DHT22;9145;48.588;9.250;2023-11-21T01:11:02;9.00;99.90
18041;DHT22;9145;48.588;9.250;2023-11-21T01:13:31;9.00;99.90
18041;DHT22;9145;48.588;9.250;2023-11-21T01:15:58;8.90;99.90
18041;DHT22;9145;48.588;9.250;2023-11-21T01:18:25;8.90;99.90
18041;DHT22;9145;48.588;9.250;2023-11-21T01:20:51;8.90;99.90
18041;DHT22;9145;48.588;9.250;2023-11-21T01:23:19;8.90;99.90
18041;DHT22;9145;48.588;9.250;2023-11-21T01:25:46;8.90;99.90
18041;DHT22;9145;48.588;9.250;2023-11-21T01:28:13;8.90;99.90
18041;DHT22;9145;48.588;9.250;2023-11-21T01:30:41;8.90;99.90
18041;DHT22;9145;48.588;9.250;2023-11-21T01:33:08;8.90;99.90
18041;DHT22;9145;48.588;9.250;2023-11-21T01:35:35;8.90;99.90
18041;DHT22;9145;48.588;9.250;2023-11-21T01:38:01;8.90;99.90
18041;DHT22;9145;48.588;9.250;2023-11-21T01:40:29;8.80;99.90
18041;DHT22;9145;48.588;9.250;2023-11-21T01:42:56;8.90;99.90
18041;DHT22;9145;48.588;9.250;2023-11-21T01:45:23;8.90;99.90
18041;DHT22;9145;48.588;9.250;2023-11-21T01:47:52;8.80;99.90
18041;DHT22;9145;48.588;9.250;2023-11-21T01:50:19;8.80;99.90
18041;DHT22;9145;48.588;9.250;2023-11-21T01:52:48;8.80;99.90
18041;DHT22;9145;48.588;9.250;2023-11-21T01:55:16;8.80;99.90
18041;DHT22;9145;48.588;9.250;2023-11-21T01:57:45;8.80;99.90
18041;DHT22;9145;48.588;9.250;2023-11-21T02:00:12;8.80;99.90
18041;DHT22;9145;48.588;9.250;2023-11-21T02:02:42;8.80;99.90
18041;DHT22;9145;48.588;9.250;2023-11-21T02:05:11;8.80;99.90
18041;DHT22;9145;48.588;9.250;2023-11-21T02:07:39;8.80;99.90
18041;DHT22;9145;48.588;9.250;2023-11-21T02:10:06;8.80;99.90
18041;DHT22;9145;48.588;9.250;2023-11-21T02:12:34;8.70;99.90
18041;DHT22;9145;48.588;9.250;2023-11-21T02:15:02;8.80;99.90
18041;DHT22;9145;48.588;9.250;2023-11-21T02:17:30;8.80;99.90
18041;DHT22;9145;48.588;9.250;2023-11-21T02:19:58;8.80;99.90
18041;DHT22;9145;48.588;9.250;2023-11-21T02:22:27;8.80;99.90
18041;DHT22;9145;48.588;9.250;2023-11-21T02:24:59;8.70;99.90
18041;DHT22;9145;48.588;9.250;2023-11-21T02:27:26;8.70;99.90
18041;DHT22;9145;48.588;9.250;2023-11-21T02:29:53;8.70;99.90
18041;DHT22;9145;48.588;9.250;2023-11-21T02:32:20;8.70;99.90
18041;DHT22;9145;48.588;9.250;2023-11-21T02:34:48;8.70;99.90
18041;DHT22;9145;48.588;9.250;2023-11-21T02:37:15;8.70;99.90
18041;DHT22;9145;48.588;9.250;2023-11-21T02:39:42;8.70;99.90
18041;DHT22;9145;48.588;9.250;2023-11-21T02:42:10;8.70;99.90
18041;DHT22;9145;48.588;9.250;2023-11-21T02:44:37;8.60;99.90
18041;DHT22;9145;48.588;9.250;2023-11-21T02:47:04;8.70;99.90
18041;DHT22;9145;48.588;9.250;2023-11-21T02:49:31;8.60;99.90
18041;DHT22;9145;48.588;9.250;2023-11-21T02:52:01;8.60;99.90
18041;DHT22;9145;48.588;9.250;2023-11-21T02:54:28;8.60;99.90
18041;DHT22;9145;48.588;9.250;2023-11-21T02:56:56;8.60;99.90
18041;DHT22;9145;48.588;9.250;2023-11-21T02:59:24;8.70;99.90
18041;DHT22;9145;48.588;9.250;2023-11-21T03:01:51;8.70;99.90
18041;DHT22;9145;48.588;9.250;2023-11-21T03:04:17;8.60;99.90
18041;DHT22;9145;48.588;9.250;2023-11-21T03:06:45;8.60;99.90
18041;DHT22;9145;48.588;9.250;2023-11-21T03:09:12;8.60;99.90
18041;DHT22;9145;48.588;9.250;2023-11-21T03:11:39;8.60;99.90
18041;DHT22;9145;48.588;9.250;2023-11-21T03:14:05;8.50;99.90
18041;DHT22;9145;48.588;9.250;2023-11-21T03:16:34;8.60;99.90
18041;DHT22;9145;48.588;9.250;2023-11-21T03:19:00;8.60;99.90
18041;DHT22;9145;48.588;9.250;2023-11-21T03:21:27;8.60;99.90
18041;DHT22;9145;48.588;9.250;2023-11-21T03:23:54;8.60;99.90
18041;DHT22;9145;48.588;9.250;2023-11-21T03:26:22;8.60;99.90
18041;DHT22;9145;48.588;9.250;2023-11-21T03:28:48;8.60;99.90
18041;DHT22;9145;48.588;9.250;2023-11-21T03:31:16;8.60;99.90
18041;DHT22;9145;48.588;9.250;2023-11-21T03:33:45;8.60;99.90
18041;DHT22;9145;48.588;9.250;2023-11-21T03:36:12;8.60;99.90
18041;DHT22;9145;48.588;9.250;2023-11-21T03:38:40;8.60;99.90
18041;DHT22;9145;48.588;9.250;2023-11-21T03:41:07;8.60;99.90
18041;DHT22;9145;48.588;9.250;2023-11-21T03:43:35;8.60;99.90
18041;DHT22;9145;48.588;9.250;2023-11-21T03:46:02;8.60;99.90
18041;DHT22;9145;48.588;9.250;2023-11-21T03:48:29;8.60;99.90
18041;DHT22;9145;48.588;9.250;2023-11-21T03:50:57;8.70;99.90
18041;DHT22;9145;48.588;9.250;2023-11-21T03:53:24;8.60;99.90
18041;DHT22;9145;48.588;9.250;2023-11-21T03:55:51;8.60;99.90
18041;DHT22;9145;48.588;9.250;2023-11-21T03:58:17;8.50;99.90
18041;DHT22;9145;48.588;9.250;2023-11-21T04:00:44;8.50;99.90
18041;DHT22;9145;48.588;9.250;2023-11-21T04:03:11;8.50;99.90
18041;DHT22;9145;48.588;9.250;2023-11-21T04:05:39;8.50;99.90
18041;DHT22;9145;48.588;9.250;2023-11-21T04:08:08;8.50;99.90
18041;DHT22;9145;48.588;9.250;2023-11-21T04:10:34;8.50;99.90
18041;DHT22;9145;48.588;9.250;2023-11-21T04:13:01;8.50;99.90
18041;DHT22;9145;48.588;9.250;2023-11-21T04:15:28;8.50;99.90
18041;DHT22;9145;48.588;9.250;2023-11-21T04:17:55;8.50;99.90
18041;DHT22;9145;48.588;9.250;2023-11-21T04:20:22;8.50;99.90
18041;DHT22;9145;48.588;9.250;2023-11-21T04:22:49;8.50;99.90
18041;DHT22;9145;48.588;9.250;2023-11-21T04:25:17;8.60;99.90
18041;DHT22;9145;48.588;9.250;2023-11-21T04:27:45;8.50;99.90
18041;DHT22;9145;48.588;9.250;2023-11-21T04:30:14;8.50;99.90
18041;DHT22;9145;48.588;9.250;2023-11-21T04:32:41;8.50;99.90
18041;DHT22;9145;48.588;9.250;2023-11-21T04:35:08;8.50;99.90
18041;DHT22;9145;48.588;9.250;2023-11-21T04:37:35;8.50;99.90
18041;DHT22;9145;48.588;9.250;2023-11-21T04:40:03;8.50;99.90
18041;DHT22;9145;48.588;9.250;2023-11-21T04:42:34;8.40;99.90
18041;DHT22;9145;48.588;9.250;2023-11-21T04:45:01;8.40;99.90
18041;DHT22;9145;48.588;9.250;2023-11-21T04:47:30;8.40;99.90
18041;DHT22;9145;48.588;9.250;2023-11-21T04:49:57;8.30;99.90
18041;DHT22;9145;48.588;9.250;2023-11-21T04:52:24;8.30;99.90
18041;DHT22;9145;48.588;9.250;2023-11-21T04:54:51;8.30;99.90
18041;DHT22;9145;48.588;9.250;2023-11-21T04:57:20;8.30;99.90
18041;DHT22;9145;48.588;9.250;2023-11-21T04:59:48;8.30;99.90
18041;DHT22;9145;48.588;9.250;2023-11-21T05:02:16;8.30;99.90
18041;DHT22;9145;48.588;9.250;2023-11-21T05:04:44;8.40;99.90
18041;DHT22;9145;48.588;9.250;2023-11-21T05:07:11;8.40;99.90
18041;DHT22;9145;48.588;9.250;2023-11-21T05:09:41;8.50;99.90
18041;DHT22;9145;48.588;9.250;2023-11-21T05:12:09;8.50;99.90
18041;DHT22;9145;48.588;9.250;2023-11-21T05:14:37;8.60;99.90
18041;DHT22;9145;48.588;9.250;2023-11-21T05:17:05;8.60;99.90
18041;DHT22;9145;48.588;9.250;2023-11-21T05:19:33;8.70;99.90
18041;DHT22;9145;48.588;9.250;2023-11-21T05:22:01;8.70;99.90
18041;DHT22;9145;48.588;9.250;2023-11-21T05:24:27;8.70;99.90
18041;DHT22;9145;48.588;9.250;2023-11-21T05:26:54;8.70;99.90
18041;DHT22;9145;48.588;9.250;2023-11-21T05:29:22;8.70;99.90
18041;DHT22;9145;48.588;9.250;2023-11-21T05:31:51;8.70;99.90
18041;DHT22;9145;48.588;9.250;2023-11-21T05:34:19;8.70;99.90
18041;DHT22;9145;48.588;9.250;2023-11-21T05:36:49;8.70;99.90
18041;DHT22;9145;48.588;9.250;2023-11-21T05:39:16;8.70;99.90
18041;DHT22;9145;48.588;9.250;2023-11-21T05:41:44;8.70;99.90
18041;DHT22;9145;48.588;9.250;2023-11-21T05:44:11;8.60;99.90
18041;DHT22;9145;48.588;9.250;2023-11-21T05:46:40;8.60;99.90
18041;DHT22;9145;48.588;9.250;2023-11-21T05:49:08;8.50;99.90
18041;DHT22;9145;48.588;9.250;2023-11-21T05:51:37;8.50;99.90
18041;DHT22;9145;48.588;9.250;2023-11-21T05:54:04;8.50;99.90
18041;DHT22;9145;48.588;9.250;2023-11-21T05:56:31;8.40;99.90
18041;DHT22;9145;48.588;9.250;2023-11-21T05:58:58;8.40;99.90
18041;DHT22;9145;48.588;9.250;2023-11-21T06:01:25;8.40;99.90
18041;DHT22;9145;48.588;9.250;2023-11-21T06:03:53;8.40;99.90
18041;DHT22;9145;48.588;9.250;2023-11-21T06:06:21;8.40;99.90
18041;DHT22;9145;48.588;9.250;2023-11-21T06:08:51;8.40;99.90
18041;DHT22;9145;48.588;9.250;2023-11-21T06:11:18;8.40;99.90
18041;DHT22;9145;48.588;9.250;2023-11-21T06:13:45;8.40;99.90
18041;DHT22;9145;48.588;9.250;2023-11-21T06:16:13;8.40;99.90
18041;DHT22;9145;48.588;9.250;2023-11-21T06:18:42;8.50;99.90
18041;DHT22;9145;48.588;9.250;2023-11-21T06:21:10;8.50;99.90
18041;DHT22;9145;48.588;9.250;2023-11-21T06:23:37;8.50;99.90
18041;DHT22;9145;48.588;9.250;2023-11-21T06:26:05;8.60;99.90
18041;DHT22;9145;48.588;9.250;2023-11-21T06:28:32;8.70;99.90
18041;DHT22;9145;48.588;9.250;2023-11-21T06:30:59;8.70;99.90
18041;DHT22;9145;48.588;9.250;2023-11-21T06:33:30;8.70;99.90
18041;DHT22;9145;48.588;9.250;2023-11-21T06:35:57;8.80;99.90
18041;DHT22;9145;48.588;9.250;2023-11-21T06:38:24;8.80;99.90
18041;DHT22;9145;48.588;9.250;2023-11-21T06:40:55;8.80;99.90
18041;DHT22;9145;48.588;9.250;2023-11-21T06:43:23;8.80;99.90
18041;DHT22;9145;48.588;9.250;2023-11-21T06:45:50;8.80;99.90
18041;DHT22;9145;48.588;9.250;2023-11-21T06:48:17;8.80;99.90
18041;DHT22;9145;48.588;9.250;2023-11-21T06:50:44;8.80;99.90
18041;DHT22;9145;48.588;9.250;2023-11-21T06:53:12;8.80;99.90
18041;DHT22;9145;48.588;9.250;2023-11-21T06:55:39;8.70;99.90
18041;DHT22;9145;48.588;9.250;2023-11-21T06:58:05;8.70;99.90
18041;DHT22;9145;48.588;9.250;2023-11-21T07:00:33;8.70;99.90
18041;DHT22;9145;48.588;9.250;2023-11-21T07:03:00;8.70;99.90
18041;DHT22;9145;48.588;9.250;2023-11-21T07:05:27;8.70;99.90
18041;DHT22;9145;48.588;9.250;2023-11-21T07:07:54;8.70;99.90
18041;DHT22;9145;48.588;9.250;2023-11-21T07:10:21;8.70;99.90
18041;DHT22;9145;48.588;9.250;2023-11-21T07:12:47;8.70;99.90
18041;DHT22;9145;48.588;9.250;2023-11-21T07:15:14;8.70;99.90
18041;DHT22;9145;48.588;9.250;2023-11-21T07:17:43;8.70;99.90
18041;DHT22;9145;48.588;9.250;2023-11-21T07:20:11;8.70;99.90
18041;DHT22;9145;48.588;9.250;2023-11-21T07:22:38;8.80;99.90
18041;DHT22;9145;48.588;9.250;2023-11-21T07:25:05;8.80;99.90
18041;DHT22;9145;48.588;9.250;2023-11-21T07:27:32;8.70;99.90
18041;DHT22;9145;48.588;9.250;2023-11-21T07:30:01;8.80;99.90
18041;DHT22;9145;48.588;9.250;2023-11-21T07:32:30;8.80;99.90
18041;DHT22;9145;48.588;9.250;2023-11-21T07:34:58;8.90;99.90
18041;DHT22;9145;48.588;9.250;2023-11-21T07:37:26;8.90;99.90
18041;DHT22;9145;48.588;9.250;2023-11-21T07:39:54;8.90;99.90
18041;DHT22;9145;48.588;9.250;2023-11-21T07:42:22;8.90;99.90
18041;DHT22;9145;48.588;9.250;2023-11-21T07:44:48;9.00;99.90
18041;DHT22;9145;48.588;9.250;2023-11-21T07:47:15;9.00;99.90
18041;DHT22;9145;48.588;9.250;2023-11-21T07:49:42;9.00;99.90
18041;DHT22;9145;48.588;9.250;2023-11-21T07:52:11;8.90;99.90
18041;DHT22;9145;48.588;9.250;2023-11-21T07:54:38;8.90;99.90
18041;DHT22;9145;48.588;9.250;2023-11-21T07:57:05;8.90;99.90
18041;DHT22;9145;48.588;9.250;2023-11-21T07:59:32;8.80;99.90
18041;DHT22;9145;48.588;9.250;2023-11-21T08:01:58;8.70;99.90
18041;DHT22;9145;48.588;9.250;2023-11-21T08:04:25;8.80;99.90
18041;DHT22;9145;48.588;9.250;2023-11-21T08:06:52;8.80;99.90
18041;DHT22;9145;48.588;9.250;2023-11-21T08:09:20;8.80;99.90
18041;DHT22;9145;48.588;9.250;2023-11-21T08:11:49;8.90;99.90
18041;DHT22;9145;48.588;9.250;2023-11-21T08:14:17;8.90;99.90
18041;DHT22;9145;48.588;9.250;2023-11-21T08:16:44;8.90;99.90
18041;DHT22;9145;48.588;9.250;2023-11-21T08:19:11;8.90;99.90
18041;DHT22;9145;48.588;9.250;2023-11-21T08:21:37;9.00;99.90
18041;DHT22;9145;48.588;9.250;2023-11-21T08:24:06;9.10;99.90
18041;DHT22;9145;48.588;9.250;2023-11-21T08:26:37;9.10;99.90
18041;DHT22;9145;48.588;9.250;2023-11-21T08:29:04;9.20;99.90
18041;DHT22;9145;48.588;9.250;2023-11-21T08:31:32;9.20;99.90
18041;DHT22;9145;48.588;9.250;2023-11-21T08:33:59;9.20;99.90
18041;DHT22;9145;48.588;9.250;2023-11-21T08:36:28;9.20;99.90
18041;DHT22;9145;48.588;9.250;2023-11-21T08:38:57;9.20;99.90
18041;DHT22;9145;48.588;9.250;2023-11-21T08:41:24;9.20;99.90
18041;DHT22;9145;48.588;9.250;2023-11-21T08:43:54;9.20;99.90
18041;DHT22;9145;48.588;9.250;2023-11-21T08:46:23;9.20;99.90
18041;DHT22;9145;48.588;9.250;2023-11-21T08:48:51;9.20;99.90
18041;DHT22;9145;48.588;9.250;2023-11-21T08:51:18;9.10;99.90
18041;DHT22;9145;48.588;9.250;2023-11-21T08:53:46;9.20;99.90
18041;DHT22;9145;48.588;9.250;2023-11-21T08:56:13;9.20;99.90
18041;DHT22;9145;48.588;9.250;2023-11-21T08:58:40;9.20;99.90
18041;DHT22;9145;48.588;9.250;2023-11-21T09:01:09;9.10;99.90
18041;DHT22;9145;48.588;9.250;2023-11-21T09:03:37;9.20;99.90
18041;DHT22;9145;48.588;9.250;2023-11-21T09:06:05;9.10;99.90
18041;DHT22;9145;48.588;9.250;2023-11-21T09:08:32;9.20;99.90
18041;DHT22;9145;48.588;9.250;2023-11-21T09:10:58;9.20;99.90
18041;DHT22;9145;48.588;9.250;2023-11-21T09:13:25;9.20;99.90
18041;DHT22;9145;48.588;9.250;2023-11-21T09:15:52;9.20;99.90
18041;DHT22;9145;48.588;9.250;2023-11-21T09:18:20;9.20;99.90
18041;DHT22;9145;48.588;9.250;2023-11-21T09:20:48;9.20;99.90
18041;DHT22;9145;48.588;9.250;2023-11-21T09:23:14;9.30;99.90
18041;DHT22;9145;48.588;9.250;2023-11-21T09:25:41;9.30;99.90
18041;DHT22;9145;48.588;9.250;2023-11-21T09:28:11;9.30;99.90
18041;DHT22;9145;48.588;9.250;2023-11-21T09:30:38;9.30;99.90
18041;DHT22;9145;48.588;9.250;2023-11-21T09:33:05;9.30;99.90
18041;DHT22;9145;48.588;9.250;2023-11-21T09:35:37;9.40;99.90
18041;DHT22;9145;48.588;9.250;2023-11-21T09:38:04;9.40;99.90
18041;DHT22;9145;48.588;9.250;2023-11-21T09:40:35;9.40;99.90
18041;DHT22;9145;48.588;9.250;2023-11-21T09:43:06;9.50;99.90
18041;DHT22;9145;48.588;9.250;2023-11-21T09:45:35;9.50;99.90
18041;DHT22;9145;48.588;9.250;2023-11-21T09:48:02;9.60;99.90
18041;DHT22;9145;48.588;9.250;2023-11-21T09:50:31;9.80;99.90
18041;DHT22;9145;48.588;9.250;2023-11-21T09:53:09;10.00;99.90
18041;DHT22;9145;48.588;9.250;2023-11-21T09:55:42;10.20;99.90
18041;DHT22;9145;48.588;9.250;2023-11-21T09:58:10;10.20;99.90
18041;DHT22;9145;48.588;9.250;2023-11-21T10:00:40;10.10;99.90
18041;DHT22;9145;48.588;9.250;2023-11-21T10:03:08;10.10;99.90
18041;DHT22;9145;48.588;9.250;2023-11-21T10:05:35;10.20;99.90
18041;DHT22;9145;48.588;9.250;2023-11-21T10:08:06;10.10;99.90
18041;DHT22;9145;48.588;9.250;2023-11-21T10:10:35;10.00;99.90
18041;DHT22;9145;48.588;9.250;2023-11-21T10:13:05;10.00;99.90
18041;DHT22;9145;48.588;9.250;2023-11-21T10:15:34;9.90;99.90
18041;DHT22;9145;48.588;9.250;2023-11-21T10:18:02;9.90;99.90
18041;DHT22;9145;48.588;9.250;2023-11-21T10:20:31;10.00;99.90
18041;DHT22;9145;48.588;9.250;2023-11-21T10:22:59;9.90;99.90
18041;DHT22;9145;48.588;9.250;2023-11-21T10:25:28;9.80;99.90
18041;DHT22;9145;48.588;9.250;2023-11-21T10:27:58;9.70;99.90
18041;DHT22;9145;48.588;9.250;2023-11-21T10:30:30;9.70;99.90
18041;DHT22;9145;48.588;9.250;2023-11-21T10:32:59;9.70;99.90
18041;DHT22;9145;48.588;9.250;2023-11-21T10:35:38;9.60;99.90
18041;DHT22;9145;48.588;9.250;2023-11-21T10:38:06;9.70;99.90
18041;DHT22;9145;48.588;9.250;2023-11-21T10:40:37;9.70;99.90
18041;DHT22;9145;48.588;9.250;2023-11-21T10:43:07;9.80;99.90
18041;DHT22;9145;48.588;9.250;2023-11-21T10:45:35;9.90;99.90
18041;DHT22;9145;48.588;9.250;2023-11-21T10:48:05;10.00;99.90
18041;DHT22;9145;48.588;9.250;2023-11-21T10:50:33;10.00;99.90
18041;DHT22;9145;48.588;9.250;2023-11-21T10:53:02;10.00;99.90
18041;DHT22;9145;48.588;9.250;2023-11-21T10:55:30;10.00;99.90
18041;DHT22;9145;48.588;9.250;2023-11-21T10:57:59;10.00;99.90
18041;DHT22;9145;48.588;9.250;2023-11-21T11:00:28;10.00;99.90
18041;DHT22;9145;48.588;9.250;2023-11-21T11:02:55;10.00;99.90
18041;DHT22;9145;48.588;9.250;2023-11-21T11:05:24;10.00;99.90
18041;DHT22;9145;48.588;9.250;2023-11-21T11:07:54;10.00;99.90
18041;DHT22;9145;48.588;9.250;2023-11-21T11:10:25;10.00;99.90
18041;DHT22;9145;48.588;9.250;2023-11-21T11:12:53;10.10;99.90
18041;DHT22;9145;48.588;9.250;2023-11-21T11:15:22;10.00;99.90
18041;DHT22;9145;48.588;9.250;2023-11-21T11:17:49;10.10;99.90
18041;DHT22;9145;48.588;9.250;2023-11-21T11:20:17;10.10;99.90
18041;DHT22;9145;48.588;9.250;2023-11-21T11:22:55;10.20;99.90
18041;DHT22;9145;48.588;9.250;2023-11-21T11:25:38;10.20;99.90
18041;DHT22;9145;48.588;9.250;2023-11-21T11:28:17;10.20;99.90
18041;DHT22;9145;48.588;9.250;2023-11-21T11:30:56;10.20;99.90
18041;DHT22;9145;48.588;9.250;2023-11-21T11:33:33;10.20;99.90
18041;DHT22;9145;48.588;9.250;2023-11-21T11:36:06;10.20;99.90
18041;DHT22;9145;48.588;9.250;2023-11-21T11:38:34;10.10;99.90
18041;DHT22;9145;48.588;9.250;2023-11-21T11:41:02;10.20;99.90
18041;DHT22;9145;48.588;9.250;2023-11-21T11:43:30;10.20;99.90
18041;DHT22;9145;48.588;9.250;2023-11-21T11:46:01;10.20;99.90
18041;DHT22;9145;48.588;9.250;2023-11-21T11:48:30;10.10;99.90
18041;DHT22;9145;48.588;9.250;2023-11-21T11:51:02;10.10;99.90
18041;DHT22;9145;48.588;9.250;2023-11-21T11:53:35;10.00;99.90
18041;DHT22;9145;48.588;9.250;2023-11-21T11:56:24;9.90;99.90
18041;DHT22;9145;48.588;9.250;2023-11-21T11:58:52;9.90;99.90
18041;DHT22;9145;48.588;9.250;2023-11-21T12:01:22;9.80;99.90
18041;DHT22;9145;48.588;9.250;2023-11-21T12:04:23;9.70;99.90
18041;DHT22;9145;48.588;9.250;2023-11-21T12:06:56;9.70;99.90
18041;DHT22;9145;48.588;9.250;2023-11-21T12:09:26;9.70;99.90
18041;DHT22;9145;48.588;9.250;2023-11-21T12:11:56;9.70;99.90
18041;DHT22;9145;48.588;9.250;2023-11-21T12:14:23;9.70;99.90
18041;DHT22;9145;48.588;9.250;2023-11-21T12:16:52;9.70;99.90
18041;DHT22;9145;48.588;9.250;2023-11-21T12:19:20;9.70;99.90
18041;DHT22;9145;48.588;9.250;2023-11-21T12:21:48;9.70;99.90
18041;DHT22;9145;48.588;9.250;2023-11-21T12:24:16;9.70;99.90
18041;DHT22;9145;48.588;9.250;2023-11-21T12:26:45;9.70;99.90
18041;DHT22;9145;48.588;9.250;2023-11-21T12:29:12;9.70;99.90
18041;DHT22;9145;48.588;9.250;2023-11-21T12:31:39;9.60;99.90
18041;DHT22;9145;48.588;9.250;2023-11-21T12:34:08;9.70;99.90
18041;DHT22;9145;48.588;9.250;2023-11-21T12:36:37;9.70;99.90
18041;DHT22;9145;48.588;9.250;2023-11-21T12:39:04;9.80;99.90
18041;DHT22;9145;48.588;9.250;2023-11-21T12:41:31;9.80;99.90
18041;DHT22;9145;48.588;9.250;2023-11-21T12:43:58;9.70;99.90
18041;DHT22;9145;48.588;9.250;2023-11-21T12:46:25;9.80;99.90
18041;DHT22;9145;48.588;9.250;2023-11-21T12:48:55;9.90;99.90
18041;DHT22;9145;48.588;9.250;2023-11-21T12:51:23;9.90;99.90
18041;DHT22;9145;48.588;9.250;2023-11-21T12:53:50;10.00;99.90
18041;DHT22;9145;48.588;9.250;2023-11-21T12:56:18;9.90;99.90
18041;DHT22;9145;48.588;9.250;2023-11-21T12:58:49;9.90;99.90
18041;DHT22;9145;48.588;9.250;2023-11-21T13:01:18;10.00;99.90
18041;DHT22;9145;48.588;9.250;2023-11-21T13:03:48;10.00;99.90
18041;DHT22;9145;48.588;9.250;2023-11-21T13:06:17;10.00;99.90
18041;DHT22;9145;48.588;9.250;2023-11-21T13:08:46;10.00;99.90
18041;DHT22;9145;48.588;9.250;2023-11-21T13:11:14;10.10;99.90
18041;DHT22;9145;48.588;9.250;2023-11-21T13:13:41;10.10;99.90
18041;DHT22;9145;48.588;9.250;2023-11-21T13:16:09;10.20;99.90
18041;DHT22;9145;48.588;9.250;2023-11-21T13:18:36;10.20;99.90
18041;DHT22;9145;48.588;9.250;2023-11-21T13:21:06;10.20;99.90
18041;DHT22;9145;48.588;9.250;2023-11-21T13:23:36;10.10;99.90
18041;DHT22;9145;48.588;9.250;2023-11-21T13:26:05;10.10;99.90
18041;DHT22;9145;48.588;9.250;2023-11-21T13:28:33;10.20;99.90
18041;DHT22;9145;48.588;9.250;2023-11-21T13:31:00;10.20;99.90
18041;DHT22;9145;48.588;9.250;2023-11-21T13:33:35;10.20;99.90
18041;DHT22;9145;48.588;9.250;2023-11-21T13:36:04;10.20;99.90
18041;DHT22;9145;48.588;9.250;2023-11-21T13:38:33;10.10;99.90
18041;DHT22;9145;48.588;9.250;2023-11-21T13:41:01;10.10;99.90
18041;DHT22;9145;48.588;9.250;2023-11-21T13:43:34;10.10;99.90
18041;DHT22;9145;48.588;9.250;2023-11-21T13:46:02;10.10;99.90
18041;DHT22;9145;48.588;9.250;2023-11-21T13:48:29;10.10;99.90
18041;DHT22;9145;48.588;9.250;2023-11-21T13:51:06;10.10;99.90
18041;DHT22;9145;48.588;9.250;2023-11-21T13:53:41;10.10;99.90
18041;DHT22;9145;48.588;9.250;2023-11-21T13:56:08;10.10;99.90
18041;DHT22;9145;48.588;9.250;2023-11-21T13:58:37;10.10;99.90
18041;DHT22;9145;48.588;9.250;2023-11-21T14:01:10;10.10;99.90
18041;DHT22;9145;48.588;9.250;2023-11-21T14:03:54;10.10;99.90
18041;DHT22;9145;48.588;9.250;2023-11-21T14:06:26;10.10;99.90
18041;DHT22;9145;48.588;9.250;2023-11-21T14:08:59;10.10;99.90
18041;DHT22;9145;48.588;9.250;2023-11-21T14:11:30;10.10;99.90
18041;DHT22;9145;48.588;9.250;2023-11-21T14:13:59;10.10;99.90
18041;DHT22;9145;48.588;9.250;2023-11-21T14:16:27;10.10;99.90
18041;DHT22;9145;48.588;9.250;2023-11-21T14:18:54;10.10;99.90
18041;DHT22;9145;48.588;9.250;2023-11-21T14:21:27;10.00;99.90
18041;DHT22;9145;48.588;9.250;2023-11-21T14:23:54;10.00;99.90
18041;DHT22;9145;48.588;9.250;2023-11-21T14:26:21;10.00;99.90
18041;DHT22;9145;48.588;9.250;2023-11-21T14:28:50;10.00;99.90
18041;DHT22;9145;48.588;9.250;2023-11-21T14:31:18;9.90;99.90
18041;DHT22;9145;48.588;9.250;2023-11-21T14:33:45;9.90;99.90
18041;DHT22;9145;48.588;9.250;2023-11-21T14:36:11;10.00;99.90
18041;DHT22;9145;48.588;9.250;2023-11-21T14:38:38;10.00;99.90
18041;DHT22;9145;48.588;9.250;2023-11-21T14:41:06;10.00;99.90
18041;DHT22;9145;48.588;9.250;2023-11-21T14:43:34;10.00;99.90
18041;DHT22;9145;48.588;9.250;2023-11-21T14:46:02;10.00;99.90
18041;DHT22;9145;48.588;9.250;2023-11-21T14:48:33;9.90;99.90
18041;DHT22;9145;48.588;9.250;2023-11-21T14:51:08;9.90;99.90
18041;DHT22;9145;48.588;9.250;2023-11-21T14:53:56;9.80;99.90
18041;DHT22;9145;48.588;9.250;2023-11-21T14:56:31;9.80;99.90
18041;DHT22;9145;48.588;9.250;2023-11-21T14:59:00;9.80;99.90
18041;DHT22;9145;48.588;9.250;2023-11-21T15:01:34;9.90;99.90
18041;DHT22;9145;48.588;9.250;2023-11-21T15:04:11;9.80;99.90
18041;DHT22;9145;48.588;9.250;2023-11-21T15:06:49;9.70;99.90
18041;DHT22;9145;48.588;9.250;2023-11-21T15:09:15;9.60;99.90
18041;DHT22;9145;48.588;9.250;2023-11-21T15:12:02;9.60;99.90
18041;DHT22;9145;48.588;9.250;2023-11-21T15:14:41;9.70;99.90
18041;DHT22;9145;48.588;9.250;2023-11-21T15:17:08;9.70;99.90
18041;DHT22;9145;48.588;9.250;2023-11-21T15:19:36;9.60;99.90
18041;DHT22;9145;48.588;9.250;2023-11-21T15:22:04;9.60;99.90
18041;DHT22;9145;48.588;9.250;2023-11-21T15:24:32;9.60;99.90
18041;DHT22;9145;48.588;9.250;2023-11-21T15:26:59;9.60;99.90
18041;DHT22;9145;48.588;9.250;2023-11-21T15:29:26;9.60;99.90
18041;DHT22;9145;48.588;9.250;2023-11-21T15:31:53;9.70;99.90
18041;DHT22;9145;48.588;9.250;2023-11-21T15:34:22;9.60;99.90
18041;DHT22;9145;48.588;9.250;2023-11-21T15:36:50;9.70;99.90
18041;DHT22;9145;48.588;9.250;2023-11-21T15:39:19;9.60;99.90
18041;DHT22;9145;48.588;9.250;2023-11-21T15:41:51;9.70;99.90
18041;DHT22;9145;48.588;9.250;2023-11-21T15:44:17;9.70;99.90
18041;DHT22;9145;48.588;9.250;2023-11-21T15:46:44;9.70;99.90
18041;DHT22;9145;48.588;9.250;2023-11-21T15:49:11;9.60;99.90
18041;DHT22;9145;48.588;9.250;2023-11-21T15:51:39;9.60;99.90
18041;DHT22;9145;48.588;9.250;2023-11-21T15:54:08;9.70;99.90
18041;DHT22;9145;48.588;9.250;2023-11-21T15:56:34;9.60;99.90
18041;DHT22;9145;48.588;9.250;2023-11-21T15:59:02;9.60;99.90
18041;DHT22;9145;48.588;9.250;2023-11-21T16:01:30;9.60;99.90
18041;DHT22;9145;48.588;9.250;2023-11-21T16:03:57;9.60;99.90
18041;DHT22;9145;48.588;9.250;2023-11-21T16:06:26;9.60;99.90
18041;DHT22;9145;48.588;9.250;2023-11-21T16:08:54;9.60;99.90